createdAt,value
2018-04-04T00:00:25.829Z,82
2018-04-04T00:01:25.306Z,82
2018-04-04T00:02:25.804Z,81
2018-04-04T00:03:25.822Z,81
2018-04-04T00:04:25.802Z,81
2018-04-04T00:05:25.764Z,81
2018-04-04T00:06:25.455Z,81
2018-04-04T00:07:25.787Z,82
2018-04-04T00:08:25.768Z,82
2018-04-04T00:09:25.570Z,82
2018-04-04T00:10:25.339Z,82
2018-04-04T00:11:25.842Z,82
2018-04-04T00:12:25.811Z,82
2018-04-04T00:13:25.751Z,82
2018-04-04T00:14:25.796Z,82
2018-04-04T00:15:25.802Z,83
2018-04-04T00:16:25.335Z,83
2018-04-04T00:17:25.833Z,83
2018-04-04T00:18:25.517Z,83
2018-04-04T00:19:25.366Z,83
2018-04-04T00:20:25.560Z,83
2018-04-04T00:21:25.355Z,83
2018-04-04T00:22:25.817Z,83
2018-04-04T00:23:25.757Z,84
2018-04-04T00:24:25.337Z,84
2018-04-04T00:25:25.848Z,84
2018-04-04T00:26:25.903Z,84
2018-04-04T00:27:25.899Z,84
2018-04-04T00:28:25.385Z,83
2018-04-04T00:29:25.907Z,83
2018-04-04T00:30:25.335Z,83
2018-04-04T00:31:25.367Z,83
2018-04-04T00:32:25.553Z,83
2018-04-04T00:33:25.398Z,84
2018-04-04T00:34:25.466Z,84
2018-04-04T00:35:25.553Z,84
2018-04-04T00:36:25.822Z,84
2018-04-04T00:37:25.470Z,84
2018-04-04T00:38:25.395Z,85
2018-04-04T00:39:25.809Z,85
2018-04-04T00:40:25.824Z,85
2018-04-04T00:41:25.803Z,85
2018-04-04T00:42:25.385Z,85
2018-04-04T00:43:25.594Z,85
2018-04-04T00:44:25.420Z,85
2018-04-04T00:45:25.428Z,85
2018-04-04T00:46:25.403Z,85
2018-04-04T00:47:25.574Z,85
2018-04-04T00:48:25.834Z,85
2018-04-04T00:49:25.838Z,85
2018-04-04T00:50:25.418Z,85
2018-04-04T00:51:25.860Z,85
2018-04-04T00:52:25.595Z,85
2018-04-04T00:53:25.621Z,85
2018-04-04T00:54:25.608Z,85
2018-04-04T00:55:25.825Z,85
2018-04-04T00:56:25.647Z,85
2018-04-04T00:57:25.861Z,85
2018-04-04T00:58:25.891Z,85
2018-04-04T00:59:25.836Z,85
2018-04-04T01:00:25.622Z,85
2018-04-04T01:01:25.410Z,85
2018-04-04T01:02:25.893Z,85
2018-04-04T01:03:25.431Z,85
2018-04-04T01:04:25.946Z,85
2018-04-04T01:05:25.870Z,85
2018-04-04T01:06:25.892Z,85
2018-04-04T01:07:25.904Z,85
2018-04-04T01:08:25.531Z,85
2018-04-04T01:09:25.954Z,85
2018-04-04T01:10:25.920Z,85
2018-04-04T01:11:25.392Z,85
2018-04-04T01:12:25.482Z,85
2018-04-04T01:13:25.895Z,85
2018-04-04T01:14:25.476Z,85
2018-04-04T01:15:25.627Z,85
2018-04-04T01:16:25.711Z,85
2018-04-04T01:17:25.937Z,85
2018-04-04T01:18:25.660Z,85
2018-04-04T01:19:25.962Z,85
2018-04-04T01:20:25.499Z,85
2018-04-04T01:21:25.934Z,85
2018-04-04T01:22:25.517Z,85
2018-04-04T01:23:25.989Z,85
2018-04-04T01:24:25.472Z,85
2018-04-04T01:25:25.445Z,85
2018-04-04T01:26:25.683Z,85
2018-04-04T01:27:25.960Z,85
2018-04-04T01:28:25.685Z,85
2018-04-04T01:29:25.925Z,86
2018-04-04T01:30:25.505Z,86
2018-04-04T01:31:25.499Z,86
2018-04-04T01:32:25.907Z,86
2018-04-04T01:33:25.944Z,86
2018-04-04T01:34:25.942Z,86
2018-04-04T01:35:25.677Z,86
2018-04-04T01:36:26.031Z,86
2018-04-04T01:37:25.704Z,86
2018-04-04T01:38:25.700Z,86
2018-04-04T01:39:25.682Z,86
2018-04-04T01:40:25.486Z,86
2018-04-04T01:41:25.954Z,86
2018-04-04T01:42:25.696Z,86
2018-04-04T01:43:25.970Z,86
2018-04-04T01:44:25.674Z,86
2018-04-04T01:45:25.729Z,86
2018-04-04T01:46:25.989Z,86
2018-04-04T01:47:25.523Z,86
2018-04-04T01:48:25.959Z,86
2018-04-04T01:49:25.687Z,86
2018-04-04T01:50:25.745Z,86
2018-04-04T01:51:26.067Z,86
2018-04-04T01:52:25.993Z,86
2018-04-04T01:53:25.944Z,86
2018-04-04T01:54:25.738Z,86
2018-04-04T01:55:25.966Z,86
2018-04-04T01:56:25.932Z,86
2018-04-04T01:57:26.010Z,86
2018-04-04T01:58:25.538Z,86
2018-04-04T01:59:25.565Z,86
2018-04-04T02:00:25.577Z,86
2018-04-04T02:01:26.024Z,86
2018-04-04T02:02:25.931Z,86
2018-04-04T02:03:25.745Z,86
2018-04-04T02:04:25.576Z,86
2018-04-04T02:05:25.548Z,86
2018-04-04T02:06:25.715Z,86
2018-04-04T02:07:25.575Z,86
2018-04-04T02:08:25.702Z,86
2018-04-04T02:09:25.746Z,86
2018-04-04T02:10:25.748Z,86
2018-04-04T02:11:25.530Z,86
2018-04-04T02:12:26.014Z,87
2018-04-04T02:13:25.559Z,87
2018-04-04T02:14:26.035Z,87
2018-04-04T02:15:26.091Z,87
2018-04-04T02:16:26.059Z,87
2018-04-04T02:17:26.082Z,87
2018-04-04T02:18:26.018Z,87
2018-04-04T02:19:25.576Z,87
2018-04-04T02:20:25.606Z,87
2018-04-04T02:21:25.574Z,87
2018-04-04T02:22:26.105Z,87
2018-04-04T02:23:25.794Z,87
2018-04-04T02:24:26.011Z,87
2018-04-04T02:25:25.560Z,86
2018-04-04T02:26:26.043Z,86
2018-04-04T02:27:26.000Z,84
2018-04-04T02:28:25.827Z,84
2018-04-04T02:29:26.011Z,84
2018-04-04T02:30:25.661Z,84
2018-04-04T02:31:25.618Z,84
2018-04-04T02:32:26.010Z,85
2018-04-04T02:33:25.626Z,85
2018-04-04T02:34:26.042Z,85
2018-04-04T02:35:26.041Z,85
2018-04-04T02:36:26.032Z,85
2018-04-04T02:37:26.041Z,85
2018-04-04T02:38:25.764Z,85
2018-04-04T02:39:25.563Z,85
2018-04-04T02:40:26.073Z,85
2018-04-04T02:41:26.075Z,85
2018-04-04T02:42:26.060Z,85
2018-04-04T02:43:25.598Z,85
2018-04-04T02:44:25.632Z,85
2018-04-04T02:45:25.589Z,85
2018-04-04T02:46:25.789Z,85
2018-04-04T02:47:25.785Z,85
2018-04-04T02:48:25.603Z,85
2018-04-04T02:49:25.650Z,85
2018-04-04T02:50:26.047Z,85
2018-04-04T02:51:25.656Z,85
2018-04-04T02:52:26.020Z,85
2018-04-04T02:53:25.660Z,85
2018-04-04T02:54:26.099Z,85
2018-04-04T02:55:26.083Z,85
2018-04-04T02:56:25.842Z,85
2018-04-04T02:57:25.641Z,85
2018-04-04T02:58:25.793Z,85
2018-04-04T02:59:25.658Z,85
2018-04-04T03:00:25.840Z,86
2018-04-04T03:01:26.079Z,86
2018-04-04T03:02:26.079Z,86
2018-04-04T03:03:25.637Z,86
2018-04-04T03:04:26.101Z,86
2018-04-04T03:05:25.714Z,85
2018-04-04T03:06:26.121Z,85
2018-04-04T03:07:26.171Z,85
2018-04-04T03:08:26.129Z,84
2018-04-04T03:09:25.670Z,84
2018-04-04T03:10:25.652Z,83
2018-04-04T03:11:25.702Z,83
2018-04-04T03:12:26.100Z,83
2018-04-04T03:13:25.686Z,83
2018-04-04T03:14:26.154Z,83
2018-04-04T03:15:26.139Z,84
2018-04-04T03:16:25.866Z,84
2018-04-04T03:17:25.668Z,84
2018-04-04T03:18:25.676Z,85
2018-04-04T03:19:25.712Z,85
2018-04-04T03:20:25.861Z,85
2018-04-04T03:21:26.067Z,85
2018-04-04T03:22:26.104Z,85
2018-04-04T03:23:25.688Z,85
2018-04-04T03:24:25.905Z,85
2018-04-04T03:25:25.703Z,85
2018-04-04T03:26:25.702Z,85
2018-04-04T03:27:26.131Z,85
2018-04-04T03:28:25.753Z,85
2018-04-04T03:29:26.232Z,85
2018-04-04T03:30:25.879Z,85
2018-04-04T03:31:25.732Z,85
2018-04-04T03:32:26.148Z,85
2018-04-04T03:33:25.718Z,85
2018-04-04T03:34:26.177Z,85
2018-04-04T03:35:26.181Z,85
2018-04-04T03:36:25.894Z,85
2018-04-04T03:37:26.103Z,85
2018-04-04T03:38:25.696Z,85
2018-04-04T03:39:26.208Z,85
2018-04-04T03:40:25.970Z,85
2018-04-04T03:41:25.893Z,85
2018-04-04T03:42:26.233Z,85
2018-04-04T03:43:25.725Z,85
2018-04-04T03:44:25.950Z,85
2018-04-04T03:45:25.721Z,85
2018-04-04T03:46:26.171Z,84
2018-04-04T03:47:25.969Z,84
2018-04-04T03:48:26.205Z,84
2018-04-04T03:49:25.764Z,85
2018-04-04T03:50:26.149Z,85
2018-04-04T03:51:26.142Z,85
2018-04-04T03:52:25.941Z,85
2018-04-04T03:53:26.193Z,85
2018-04-04T03:54:25.799Z,86
2018-04-04T03:55:26.231Z,86
2018-04-04T03:56:25.978Z,86
2018-04-04T03:57:25.933Z,86
2018-04-04T03:58:25.774Z,86
2018-04-04T03:59:26.001Z,87
2018-04-04T04:00:26.143Z,87
2018-04-04T04:01:25.946Z,87
2018-04-04T04:02:26.259Z,87
2018-04-04T04:03:25.765Z,87
2018-04-04T04:04:25.967Z,87
2018-04-04T04:05:26.186Z,87
2018-04-04T04:06:26.197Z,87
2018-04-04T04:07:26.231Z,87
2018-04-04T04:08:26.233Z,87
2018-04-04T04:09:26.232Z,87
2018-04-04T04:10:26.214Z,87
2018-04-04T04:11:26.254Z,87
2018-04-04T04:12:25.826Z,87
2018-04-04T04:13:25.996Z,87
2018-04-04T04:14:26.052Z,87
2018-04-04T04:15:26.301Z,87
2018-04-04T04:16:26.279Z,87
2018-04-04T04:17:26.305Z,87
2018-04-04T04:18:26.246Z,87
2018-04-04T04:19:26.399Z,87
2018-04-04T04:20:25.831Z,87
2018-04-04T04:21:26.198Z,87
2018-04-04T04:22:26.259Z,88
2018-04-04T04:23:26.267Z,88
2018-04-04T04:24:26.040Z,88
2018-04-04T04:25:26.257Z,88
2018-04-04T04:26:25.825Z,88
2018-04-04T04:27:25.799Z,88
2018-04-04T04:28:26.332Z,88
2018-04-04T04:29:25.874Z,89
2018-04-04T04:30:26.312Z,89
2018-04-04T04:31:26.266Z,89
2018-04-04T04:32:25.989Z,88
2018-04-04T04:33:25.792Z,88
2018-04-04T04:34:25.884Z,88
2018-04-04T04:35:26.040Z,88
2018-04-04T04:36:25.814Z,88
2018-04-04T04:37:26.299Z,88
2018-04-04T04:38:26.034Z,88
2018-04-04T04:39:26.069Z,88
2018-04-04T04:40:26.019Z,88
2018-04-04T04:41:26.266Z,88
2018-04-04T04:42:26.081Z,89
2018-04-04T04:43:25.848Z,89
2018-04-04T04:44:26.290Z,90
2018-04-04T04:45:25.876Z,90
2018-04-04T04:46:25.846Z,90
2018-04-04T04:47:26.319Z,90
2018-04-04T04:48:26.045Z,90
2018-04-04T04:49:26.048Z,90
2018-04-04T04:50:25.862Z,90
2018-04-04T04:51:26.049Z,90
2018-04-04T04:52:25.850Z,90
2018-04-04T04:53:26.293Z,90
2018-04-04T04:54:26.223Z,90
2018-04-04T04:55:26.355Z,90
2018-04-04T04:56:25.967Z,90
2018-04-04T04:57:26.280Z,91
2018-04-04T04:58:26.005Z,91
2018-04-04T04:59:26.081Z,91
2018-04-04T05:00:26.268Z,91
2018-04-04T05:01:26.056Z,91
2018-04-04T05:02:26.028Z,91
2018-04-04T05:03:25.880Z,91
2018-04-04T05:04:26.062Z,91
2018-04-04T05:05:25.855Z,91
2018-04-04T05:06:26.110Z,91
2018-04-04T05:07:26.110Z,91
2018-04-04T05:08:26.338Z,91
2018-04-04T05:09:26.398Z,91
2018-04-04T05:10:26.348Z,91
2018-04-04T05:11:26.342Z,91
2018-04-04T05:12:25.943Z,91
2018-04-04T05:13:26.375Z,91
2018-04-04T05:14:26.367Z,91
2018-04-04T05:15:26.155Z,91
2018-04-04T05:16:26.317Z,91
2018-04-04T05:17:26.336Z,91
2018-04-04T05:18:26.386Z,91
2018-04-04T05:19:25.938Z,91
2018-04-04T05:20:26.417Z,91
2018-04-04T05:21:26.375Z,91
2018-04-04T05:22:26.438Z,91
2018-04-04T05:23:26.463Z,91
2018-04-04T05:24:26.340Z,91
2018-04-04T05:25:26.128Z,91
2018-04-04T05:26:26.086Z,91
2018-04-04T05:27:26.394Z,91
2018-04-04T05:28:26.118Z,91
2018-04-04T05:29:26.340Z,91
2018-04-04T05:30:25.966Z,91
2018-04-04T05:31:26.365Z,91
2018-04-04T05:32:26.124Z,91
2018-04-04T05:33:26.030Z,90
2018-04-04T05:34:26.480Z,90
2018-04-04T05:35:26.573Z,90
2018-04-04T05:36:25.947Z,90
2018-04-04T05:37:26.176Z,90
2018-04-04T05:38:26.436Z,91
2018-04-04T05:39:26.755Z,91
2018-04-04T05:40:26.453Z,91
2018-04-04T05:41:26.411Z,91
2018-04-04T05:42:25.948Z,91
2018-04-04T05:43:25.961Z,91
2018-04-04T05:44:26.121Z,91
2018-04-04T05:45:26.165Z,91
2018-04-04T05:46:25.982Z,91
2018-04-04T05:47:26.577Z,91
2018-04-04T05:48:26.415Z,91
2018-04-04T05:49:26.154Z,91
2018-04-04T05:50:26.431Z,91
2018-04-04T05:51:26.165Z,90
2018-04-04T05:52:26.687Z,90
2018-04-04T05:53:26.439Z,90
2018-04-04T05:54:26.447Z,90
2018-04-04T05:55:26.190Z,90
2018-04-04T05:56:26.446Z,89
2018-04-04T05:57:25.966Z,89
2018-04-04T05:58:26.450Z,89
2018-04-04T05:59:26.238Z,89
2018-04-04T06:00:26.456Z,89
2018-04-04T06:01:26.475Z,89
2018-04-04T06:02:26.465Z,89
2018-04-04T06:03:26.467Z,89
2018-04-04T06:04:25.994Z,89
2018-04-04T06:05:26.152Z,89
2018-04-04T06:06:26.219Z,89
2018-04-04T06:07:25.983Z,89
2018-04-04T06:08:26.437Z,89
2018-04-04T06:09:26.195Z,89
2018-04-04T06:10:26.518Z,89
2018-04-04T06:11:26.520Z,90
2018-04-04T06:12:25.990Z,90
2018-04-04T06:13:26.832Z,90
2018-04-04T06:14:26.481Z,90
2018-04-04T06:15:26.002Z,90
2018-04-04T06:16:26.484Z,90
2018-04-04T06:17:26.500Z,90
2018-04-04T06:18:26.040Z,90
2018-04-04T06:19:26.489Z,90
2018-04-04T06:20:26.217Z,90
2018-04-04T06:21:26.212Z,90
2018-04-04T06:22:26.187Z,90
2018-04-04T06:23:26.063Z,90
2018-04-04T06:24:27.241Z,90
2018-04-04T06:25:26.455Z,90
2018-04-04T06:26:26.513Z,90
2018-04-04T06:27:26.213Z,90
2018-04-04T06:28:26.487Z,90
2018-04-04T06:29:26.258Z,89
2018-04-04T06:30:26.499Z,89
2018-04-04T06:31:26.236Z,89
2018-04-04T06:32:26.226Z,89
2018-04-04T06:33:26.495Z,89
2018-04-04T06:34:26.509Z,89
2018-04-04T06:35:26.299Z,89
2018-04-04T06:36:26.493Z,88
2018-04-04T06:37:26.233Z,88
2018-04-04T06:38:26.231Z,88
2018-04-04T06:39:26.456Z,88
2018-04-04T06:40:26.485Z,88
2018-04-04T06:41:26.258Z,88
2018-04-04T06:42:26.492Z,88
2018-04-04T06:43:26.105Z,88
2018-04-04T06:44:26.108Z,87
2018-04-04T06:45:26.552Z,87
2018-04-04T06:46:26.545Z,87
2018-04-04T06:47:26.639Z,87
2018-04-04T06:48:26.082Z,87
2018-04-04T06:49:26.567Z,86
2018-04-04T06:50:26.090Z,86
2018-04-04T06:51:26.309Z,86
2018-04-04T06:52:26.294Z,86
2018-04-04T06:53:26.546Z,86
2018-04-04T06:54:26.044Z,86
2018-04-04T06:55:26.236Z,86
2018-04-04T06:56:26.103Z,86
2018-04-04T06:57:26.526Z,85
2018-04-04T06:58:26.556Z,85
2018-04-04T06:59:26.303Z,86
2018-04-04T07:00:26.125Z,86
2018-04-04T07:01:26.097Z,86
2018-04-04T07:02:26.248Z,86
2018-04-04T07:03:26.126Z,86
2018-04-04T07:04:26.310Z,86
2018-04-04T07:05:26.312Z,86
2018-04-04T07:06:26.287Z,86
2018-04-04T07:07:26.204Z,86
2018-04-04T07:08:26.540Z,86
2018-04-04T07:09:26.575Z,85
2018-04-04T07:10:26.105Z,85
2018-04-04T07:11:26.567Z,85
2018-04-04T07:12:26.532Z,84
2018-04-04T07:13:26.633Z,84
2018-04-04T07:14:26.375Z,84
2018-04-04T07:15:26.096Z,84
2018-04-04T07:16:26.114Z,84
2018-04-04T07:17:26.348Z,84
2018-04-04T07:18:26.538Z,84
2018-04-04T07:19:26.132Z,84
2018-04-04T07:20:26.268Z,84
2018-04-04T07:21:26.336Z,84
2018-04-04T07:22:26.860Z,84
2018-04-04T07:23:26.338Z,84
2018-04-04T07:24:26.382Z,84
2018-04-04T07:25:26.593Z,83
2018-04-04T07:26:26.089Z,83
2018-04-04T07:27:26.163Z,84
2018-04-04T07:28:26.294Z,84
2018-04-04T07:29:26.576Z,84
2018-04-04T07:30:26.617Z,84
2018-04-04T07:31:26.147Z,84
2018-04-04T07:32:26.315Z,84
2018-04-04T07:33:26.605Z,84
2018-04-04T07:34:26.570Z,84
2018-04-04T07:35:26.645Z,85
2018-04-04T07:36:27.086Z,85
2018-04-04T07:37:27.958Z,85
2018-04-04T07:38:26.400Z,85
2018-04-04T07:39:26.370Z,85
2018-04-04T07:40:26.388Z,85
2018-04-04T07:41:26.144Z,85
2018-04-04T07:42:26.383Z,85
2018-04-04T07:43:26.658Z,85
2018-04-04T07:44:26.601Z,85
2018-04-04T07:45:26.327Z,85
2018-04-04T07:46:26.596Z,85
2018-04-04T07:47:26.872Z,85
2018-04-04T07:48:26.644Z,85
2018-04-04T07:49:26.669Z,85
2018-04-04T07:50:26.139Z,83
2018-04-04T07:51:26.686Z,83
2018-04-04T07:52:26.390Z,83
2018-04-04T07:53:26.178Z,83
2018-04-04T07:54:26.390Z,83
2018-04-04T07:55:26.165Z,84
2018-04-04T07:56:27.053Z,84
2018-04-04T07:57:26.759Z,84
2018-04-04T07:58:26.447Z,84
2018-04-04T07:59:26.220Z,84
2018-04-04T08:00:26.648Z,83
2018-04-04T08:01:26.722Z,83
2018-04-04T08:02:26.645Z,83
2018-04-04T08:03:26.674Z,82
2018-04-04T08:04:26.434Z,82
2018-04-04T08:05:26.634Z,78
2018-04-04T08:06:26.631Z,78
2018-04-04T08:07:26.398Z,78
2018-04-04T08:08:26.668Z,77
2018-04-04T08:09:26.192Z,77
2018-04-04T08:10:26.709Z,77
2018-04-04T08:11:26.188Z,77
2018-04-04T08:12:26.698Z,77
2018-04-04T08:13:26.419Z,75
2018-04-04T08:14:26.398Z,75
2018-04-04T08:15:26.449Z,72
2018-04-04T08:16:26.660Z,72
2018-04-04T08:17:26.395Z,72
2018-04-04T08:18:26.725Z,70
2018-04-04T08:19:26.663Z,70
2018-04-04T08:20:26.233Z,70
2018-04-04T08:21:26.431Z,69
2018-04-04T08:22:26.256Z,69
2018-04-04T08:23:26.450Z,67
2018-04-04T08:24:26.352Z,67
2018-04-04T08:25:26.271Z,67
2018-04-04T08:26:26.761Z,66
2018-04-04T08:27:26.411Z,66
2018-04-04T08:28:26.426Z,66
2018-04-04T08:29:26.692Z,66
2018-04-04T08:30:26.273Z,66
2018-04-04T08:31:26.694Z,65
2018-04-04T08:32:26.734Z,65
2018-04-04T08:33:26.274Z,65
2018-04-04T08:34:26.578Z,65
2018-04-04T08:35:26.679Z,65
2018-04-04T08:36:26.754Z,63
2018-04-04T08:37:26.728Z,63
2018-04-04T08:38:26.403Z,64
2018-04-04T08:39:26.277Z,64
2018-04-04T08:40:26.292Z,64
2018-04-04T08:41:26.651Z,64
2018-04-04T08:42:26.802Z,64
2018-04-04T08:43:26.218Z,63
2018-04-04T08:44:26.464Z,63
2018-04-04T08:45:26.696Z,63
2018-04-04T08:46:27.674Z,62
2018-04-04T08:47:26.727Z,62
2018-04-04T08:48:26.504Z,61
2018-04-04T08:49:26.452Z,61
2018-04-04T08:50:26.781Z,61
2018-04-04T08:51:26.462Z,61
2018-04-04T08:52:26.832Z,61
2018-04-04T08:53:26.319Z,61
2018-04-04T08:54:26.806Z,60
2018-04-04T08:55:26.754Z,60
2018-04-04T08:56:26.777Z,59
2018-04-04T08:57:26.777Z,59
2018-04-04T08:58:26.486Z,59
2018-04-04T08:59:28.638Z,58
2018-04-04T09:00:30.666Z,58
2018-04-04T09:01:28.925Z,58
2018-04-04T09:02:28.895Z,58
2018-04-04T09:03:28.861Z,58
2018-04-04T09:04:28.866Z,57
2018-04-04T09:05:28.404Z,57
2018-04-04T09:06:28.682Z,58
2018-04-04T09:07:28.902Z,58
2018-04-04T09:08:28.650Z,58
2018-04-04T09:09:28.609Z,58
2018-04-04T09:10:28.528Z,58
2018-04-04T09:11:28.583Z,57
2018-04-04T09:12:28.847Z,57
2018-04-04T09:15:28.965Z,56
2018-04-04T09:17:28.496Z,57
2018-04-04T09:20:28.526Z,57
2018-04-04T09:21:28.809Z,57
2018-04-04T09:22:28.434Z,56
2018-04-04T09:23:28.672Z,56
2018-04-04T09:24:28.648Z,55
2018-04-04T09:25:28.891Z,55
2018-04-04T09:26:28.517Z,55
2018-04-04T09:27:28.417Z,55
2018-04-04T09:28:28.565Z,55
2018-04-04T09:29:28.517Z,55
2018-04-04T09:30:28.965Z,55
2018-04-04T09:31:28.937Z,55
2018-04-04T09:33:28.916Z,53
2018-04-04T09:34:28.850Z,53
2018-04-04T09:35:28.614Z,53
2018-04-04T09:37:28.917Z,53
2018-04-04T09:38:28.966Z,53
2018-04-04T09:42:28.671Z,52
2018-04-04T09:43:28.914Z,52
2018-04-04T09:44:28.499Z,52
2018-04-04T09:45:28.911Z,52
2018-04-04T09:46:29.318Z,52
2018-04-04T09:47:28.546Z,51
2018-04-04T09:49:29.342Z,51
2018-04-04T09:50:28.483Z,51
2018-04-04T09:51:28.667Z,51
2018-04-04T09:52:28.996Z,51
2018-04-04T09:53:28.910Z,51
2018-04-04T09:55:30.122Z,51
2018-04-04T09:56:28.997Z,51
2018-04-04T09:58:28.899Z,50
2018-04-04T09:59:28.538Z,50
2018-04-04T10:00:29.036Z,49
2018-04-04T10:01:28.964Z,49
2018-04-04T10:02:28.737Z,50
2018-04-04T10:03:28.712Z,50
2018-04-04T10:05:28.768Z,49
2018-04-04T10:07:29.002Z,49
2018-04-04T10:08:28.755Z,49
2018-04-04T10:09:29.018Z,49
2018-04-04T10:10:28.949Z,48
2018-04-04T10:13:28.932Z,45
2018-04-04T10:14:28.721Z,45
2018-04-04T10:15:28.741Z,45
2018-04-04T10:16:28.968Z,45
2018-04-04T10:17:28.920Z,46
2018-04-04T10:18:28.561Z,46
2018-04-04T10:19:28.560Z,46
2018-04-04T10:20:28.519Z,47
2018-04-04T10:21:30.568Z,47
2018-04-04T10:22:28.528Z,47
2018-04-04T10:23:28.933Z,47
2018-04-04T10:24:28.829Z,47
2018-04-04T10:25:29.017Z,47
2018-04-04T10:26:28.842Z,47
2018-04-04T10:27:28.919Z,47
2018-04-04T10:28:28.962Z,47
2018-04-04T10:29:28.953Z,47
2018-04-04T10:30:29.341Z,47
2018-04-04T10:31:28.783Z,47
2018-04-04T10:32:29.019Z,47
2018-04-04T10:34:28.989Z,45
2018-04-04T10:35:28.777Z,45
2018-04-04T10:36:28.763Z,45
2018-04-04T10:37:29.021Z,45
2018-04-04T10:39:28.966Z,44
2018-04-04T10:40:28.575Z,44
2018-04-04T10:41:28.567Z,44
2018-04-04T10:42:28.760Z,44
2018-04-04T10:43:28.770Z,45
2018-04-04T10:44:29.031Z,45
2018-04-04T10:45:29.026Z,45
2018-04-04T10:46:28.996Z,45
2018-04-04T10:47:28.596Z,45
2018-04-04T10:48:28.626Z,46
2018-04-04T10:49:29.023Z,46
2018-04-04T10:50:29.011Z,45
2018-04-04T10:51:28.777Z,45
2018-04-04T10:53:28.764Z,43
2018-04-04T10:54:29.412Z,43
2018-04-04T10:55:29.450Z,43
2018-04-04T10:56:29.421Z,44
2018-04-04T10:57:29.470Z,44
2018-04-04T10:58:29.031Z,45
2018-04-04T10:59:29.558Z,45
2018-04-04T11:01:29.469Z,42
2018-04-04T11:04:29.240Z,43
2018-04-04T11:05:29.469Z,43
2018-04-04T11:06:29.059Z,43
2018-04-04T11:08:28.790Z,43
2018-04-04T11:09:29.032Z,43
2018-04-04T11:10:29.422Z,43
2018-04-04T11:11:29.099Z,43
2018-04-04T11:12:28.610Z,43
2018-04-04T11:13:29.558Z,42
2018-04-04T11:14:29.092Z,42
2018-04-04T11:15:28.833Z,42
2018-04-04T11:16:28.815Z,41
2018-04-04T11:17:29.079Z,41
2018-04-04T11:18:28.809Z,43
2018-04-04T11:19:29.079Z,43
2018-04-04T11:20:28.664Z,43
2018-04-04T11:22:29.201Z,41
2018-04-04T11:23:37.466Z,41
2018-04-04T11:24:29.134Z,42
2018-04-04T11:25:29.160Z,42
2018-04-04T11:26:29.110Z,42
2018-04-04T11:28:29.188Z,42
2018-04-04T11:30:28.686Z,42
2018-04-04T11:32:29.336Z,42
2018-04-04T11:33:29.795Z,42
2018-04-04T11:34:28.699Z,40
2018-04-04T11:35:28.824Z,40
2018-04-04T11:36:28.738Z,41
2018-04-04T11:38:29.592Z,41
2018-04-04T11:39:28.903Z,40
2018-04-04T11:40:28.916Z,40
2018-04-04T11:42:29.076Z,41
2018-04-04T11:43:28.939Z,41
2018-04-04T11:45:29.071Z,40
2018-04-04T11:46:28.921Z,39
2018-04-04T11:47:28.859Z,39
2018-04-04T11:48:28.900Z,39
2018-04-04T11:49:28.896Z,39
2018-04-04T11:50:28.883Z,39
2018-04-04T11:51:29.122Z,39
2018-04-04T11:52:28.910Z,39
2018-04-04T11:53:28.758Z,39
2018-04-04T11:55:29.214Z,39
2018-04-04T11:56:29.743Z,39
2018-04-04T11:57:28.929Z,40
2018-04-04T11:58:29.205Z,40
2018-04-04T11:59:29.408Z,40
2018-04-04T12:00:29.165Z,40
2018-04-04T12:02:28.908Z,39
2018-04-04T12:03:29.241Z,39
2018-04-04T12:04:29.355Z,39
2018-04-04T12:05:28.727Z,39
2018-04-04T12:08:29.132Z,40
2018-04-04T12:09:29.394Z,39
2018-04-04T12:10:29.545Z,39
2018-04-04T12:11:29.704Z,39
2018-04-04T12:12:29.541Z,38
2018-04-04T12:13:29.670Z,38
2018-04-04T12:14:28.934Z,40
2018-04-04T12:15:29.196Z,40
2018-04-04T12:16:29.187Z,40
2018-04-04T12:17:29.394Z,39
2018-04-04T12:18:29.567Z,39
2018-04-04T12:19:29.191Z,39
2018-04-04T12:20:28.977Z,39
2018-04-04T12:21:29.212Z,39
2018-04-04T12:23:29.667Z,38
2018-04-04T12:25:29.175Z,38
2018-04-04T12:26:29.586Z,38
2018-04-04T12:27:29.690Z,39
2018-04-04T12:28:29.467Z,39
2018-04-04T12:29:29.821Z,39
2018-04-04T12:30:29.635Z,37
2018-04-04T12:32:29.427Z,37
2018-04-04T12:33:28.777Z,37
2018-04-04T12:34:29.227Z,37
2018-04-04T12:36:29.132Z,38
2018-04-04T12:37:29.731Z,36
2018-04-04T12:38:29.632Z,36
2018-04-04T12:40:28.793Z,38
2018-04-04T12:41:29.014Z,38
2018-04-04T12:42:29.187Z,37
2018-04-04T12:43:29.832Z,37
2018-04-04T12:44:29.277Z,37
2018-04-04T12:46:29.024Z,38
2018-04-04T12:47:29.621Z,38
2018-04-04T12:48:29.708Z,38
2018-04-04T12:49:29.415Z,38
2018-04-04T12:50:30.688Z,38
2018-04-04T12:51:29.474Z,38
2018-04-04T12:52:29.538Z,39
2018-04-04T12:53:29.943Z,39
2018-04-04T12:54:29.534Z,39
2018-04-04T12:55:28.939Z,37
2018-04-04T12:56:31.409Z,37
2018-04-04T12:57:29.582Z,37
2018-04-04T12:58:29.372Z,36
2018-04-04T12:59:29.537Z,36
2018-04-04T13:00:30.127Z,36
2018-04-04T13:01:29.477Z,36
2018-04-04T13:02:29.241Z,36
2018-04-04T13:03:29.264Z,38
2018-04-04T13:06:29.547Z,38
2018-04-04T13:07:29.298Z,38
2018-04-04T13:08:29.530Z,37
2018-04-04T13:09:29.811Z,37
2018-04-04T13:10:29.252Z,37
2018-04-04T13:11:29.688Z,37
2018-04-04T13:12:29.713Z,37
2018-04-04T13:14:28.937Z,37
2018-04-04T13:15:29.132Z,37
2018-04-04T13:16:29.456Z,37
2018-04-04T13:17:29.286Z,37
2018-04-04T13:18:30.674Z,39
2018-04-04T13:19:29.733Z,39
2018-04-04T13:21:29.797Z,39
2018-04-04T13:22:29.805Z,39
2018-04-04T13:23:29.867Z,40
2018-04-04T13:24:29.324Z,40
2018-04-04T13:25:29.814Z,40
2018-04-04T13:26:29.289Z,40
2018-04-04T13:27:29.315Z,40
2018-04-04T13:28:29.347Z,40
2018-04-04T13:31:30.349Z,41
2018-04-04T13:32:29.616Z,41
2018-04-04T13:33:29.095Z,42
2018-04-04T13:35:30.122Z,42
2018-04-04T13:36:29.532Z,41
2018-04-04T13:37:29.611Z,41
2018-04-04T13:38:29.874Z,41
2018-04-04T13:39:30.398Z,41
2018-04-04T13:40:29.568Z,41
2018-04-04T13:41:29.916Z,41
2018-04-04T13:42:29.119Z,41
2018-04-04T13:43:28.958Z,40
2018-04-04T13:44:29.132Z,40
2018-04-04T13:45:29.121Z,40
2018-04-04T13:46:29.791Z,40
2018-04-04T13:47:29.753Z,40
2018-04-04T13:48:29.418Z,40
2018-04-04T13:49:29.327Z,40
2018-04-04T13:50:29.819Z,40
2018-04-04T13:51:29.852Z,40
2018-04-04T13:52:29.890Z,40
2018-04-04T13:53:29.143Z,40
2018-04-04T13:54:29.846Z,40
2018-04-04T13:55:28.942Z,40
2018-04-04T13:56:29.823Z,41
2018-04-04T13:57:29.566Z,41
2018-04-04T13:58:29.563Z,41
2018-04-04T13:59:29.630Z,40
2018-04-04T14:00:28.969Z,40
2018-04-04T14:01:30.052Z,40
2018-04-04T14:02:29.822Z,40
2018-04-04T14:03:29.414Z,40
2018-04-04T14:04:29.182Z,42
2018-04-04T14:05:29.789Z,42
2018-04-04T14:06:29.226Z,41
2018-04-04T14:07:29.852Z,41
2018-04-04T14:08:29.365Z,41
2018-04-04T14:09:29.816Z,40
2018-04-04T14:11:29.910Z,43
2018-04-04T14:12:29.386Z,43
2018-04-04T14:13:29.046Z,43
2018-04-04T14:14:29.624Z,46
2018-04-04T14:15:29.873Z,46
2018-04-04T14:16:29.423Z,57
2018-04-04T14:17:29.844Z,57
2018-04-04T14:18:29.868Z,57
2018-04-04T14:19:29.871Z,61
2018-04-04T14:20:29.396Z,61
2018-04-04T14:21:29.842Z,64
2018-04-04T14:22:29.350Z,64
2018-04-04T14:23:29.347Z,64
2018-04-04T14:24:29.559Z,66
2018-04-04T14:26:29.367Z,66
2018-04-04T14:27:29.072Z,66
2018-04-04T14:28:29.433Z,68
2018-04-04T14:29:29.943Z,71
2018-04-04T14:30:29.453Z,71
2018-04-04T14:31:30.253Z,71
2018-04-04T14:32:29.385Z,74
2018-04-04T14:33:29.522Z,74
2018-04-04T14:34:29.700Z,74
2018-04-04T14:35:27.862Z,74
2018-04-04T14:37:30.010Z,74
2018-04-04T14:38:29.631Z,74
2018-04-04T14:39:27.609Z,74
2018-04-04T14:40:29.470Z,74
2018-04-04T14:42:29.447Z,74
2018-04-04T14:43:29.984Z,74
2018-04-04T14:44:29.504Z,74
2018-04-04T14:45:27.471Z,74
2018-04-04T14:46:27.213Z,74
2018-04-04T14:47:26.992Z,74
2018-04-04T14:48:27.513Z,74
2018-04-04T14:49:27.097Z,75
2018-04-04T14:50:27.411Z,75
2018-04-04T14:51:27.545Z,75
2018-04-04T14:52:27.458Z,74
2018-04-04T14:53:27.528Z,74
2018-04-04T14:54:27.164Z,74
2018-04-04T14:55:27.038Z,74
2018-04-04T14:56:27.418Z,74
2018-04-04T14:57:27.452Z,73
2018-04-04T14:58:27.447Z,73
2018-04-04T14:59:27.068Z,73
2018-04-04T15:00:27.549Z,72
2018-04-04T15:01:27.171Z,72
2018-04-04T15:02:27.161Z,71
2018-04-04T15:03:28.439Z,71
2018-04-04T15:04:26.975Z,71
2018-04-04T15:05:27.199Z,70
2018-04-04T15:06:27.467Z,70
2018-04-04T15:07:27.440Z,70